Time;durP1;ratioP1;P1;durP2;ratioP2;P2;SDS_P1;SDS_P2;PMS_P1;PMS_P2;Temp;Humidity;BMP_temperature;BMP_pressure;BME280_temperature;BME280_humidity;BME280_pressure;Samples;Min_cycle;Max_cycle;Signal;HPM_P1;HPM_P2
2022/05/29 00:00:36;0.00;0.00;0.62;0.00;0.00;0.62;1.67;0.80;;;27.80;25.80;;;;;;2264019;61;20388;-60
2022/05/29 00:03:21;0.00;0.00;0.62;0.00;0.00;0.62;2.07;1.47;;;27.80;25.80;;;;;;2258466;61;20892;-61
2022/05/29 00:06:06;0.00;0.00;0.62;0.00;0.00;0.62;1.83;1.10;;;27.80;25.90;;;;;;2260279;61;20968;-61
2022/05/29 00:08:51;0.00;0.00;0.62;0.00;0.00;0.62;1.80;1.03;;;27.80;25.90;;;;;;2260022;61;20350;-56
2022/05/29 00:11:36;0.00;0.00;0.62;0.00;0.00;0.62;1.20;0.60;;;27.80;25.90;;;;;;2260868;61;20389;-60
2022/05/29 00:14:21;0.00;0.00;0.62;0.00;0.00;0.62;1.70;0.70;;;27.80;25.90;;;;;;2262017;61;20763;-60
2022/05/29 00:17:08;0.00;0.00;0.62;0.00;0.00;0.62;2.40;1.20;;;27.80;25.90;;;;;;2327119;53;20920;-59
2022/05/29 00:19:53;0.00;0.00;0.62;0.00;0.00;0.62;1.70;0.93;;;27.80;25.90;;;;;;2260553;61;20455;-62
2022/05/29 00:22:38;0.00;0.00;0.62;0.00;0.00;0.62;1.40;0.90;;;27.80;25.90;;;;;;2260814;61;20371;-60
2022/05/29 00:25:23;0.00;0.00;0.62;0.00;0.00;0.62;1.60;1.00;;;27.80;25.90;;;;;;2264322;61;20379;-64
2022/05/29 00:28:07;0.00;0.00;0.62;0.00;0.00;0.62;2.77;1.03;;;27.80;25.90;;;;;;2260897;61;20388;-60
2022/05/29 00:30:52;0.00;0.00;0.62;0.00;0.00;0.62;1.50;0.80;;;27.80;25.90;;;;;;2262529;61;20404;-60
2022/05/29 00:33:37;0.00;0.00;0.62;0.00;0.00;0.62;1.90;1.00;;;27.80;25.90;;;;;;2260301;61;20362;-58
2022/05/29 00:36:22;0.00;0.00;0.62;0.00;0.00;0.62;1.20;0.70;;;27.90;25.90;;;;;;2260009;61;20478;-59
2022/05/29 00:39:09;0.00;0.00;0.62;0.00;0.00;0.62;2.60;0.90;;;27.80;25.90;;;;;;2259836;61;20913;-63
2022/05/29 00:41:54;0.00;0.00;0.62;0.00;0.00;0.62;2.00;1.07;;;27.80;25.80;;;;;;2260054;61;20488;-59
2022/05/29 00:44:39;0.00;0.00;0.62;0.00;0.00;0.62;1.53;0.90;;;27.80;25.70;;;;;;2260042;61;20782;-59
2022/05/29 00:47:23;0.00;0.00;0.62;0.00;0.00;0.62;1.80;0.93;;;27.80;25.70;;;;;;2259960;61;20835;-60
2022/05/29 00:50:10;0.00;0.00;0.62;0.00;0.00;0.62;1.80;1.23;;;27.80;25.70;;;;;;2327808;53;20448;-57
2022/05/29 00:52:54;0.00;0.00;0.62;0.00;0.00;0.62;3.17;1.07;;;27.80;26.10;;;;;;2264587;61;20786;-59
2022/05/29 00:55:40;0.00;0.00;0.62;0.00;0.00;0.62;2.60;1.00;;;27.80;25.50;;;;;;2268165;61;20440;-59
2022/05/29 00:58:25;0.00;0.00;0.62;0.00;0.00;0.62;2.93;1.17;;;27.80;25.50;;;;;;2267930;61;20403;-58
2022/05/29 01:01:11;0.00;0.00;0.62;0.00;0.00;0.62;3.17;1.07;;;27.70;25.40;;;;;;2267554;61;20756;-59
2022/05/29 01:03:56;0.00;0.00;0.62;0.00;0.00;0.62;2.10;1.13;;;27.70;25.30;;;;;;2268687;61;20370;-57
2022/05/29 01:06:42;0.00;0.00;0.62;0.00;0.00;0.62;1.93;1.20;;;27.60;25.30;;;;;;2267680;61;20433;-58
2022/05/29 01:09:27;0.00;0.00;0.62;0.00;0.00;0.62;1.63;0.80;;;27.60;25.20;;;;;;2268025;61;20894;-60
2022/05/29 01:12:31;0.00;0.00;0.62;0.00;0.00;0.62;2.13;1.20;;;27.60;25.20;;;;;;2267929;61;20504;-62
2022/05/29 01:15:29;0.00;0.00;0.62;0.00;0.00;0.62;2.30;1.13;;;27.50;25.20;;;;;;2267755;61;20412;-61
2022/05/29 01:18:26;0.00;0.00;0.62;0.00;0.00;0.62;3.23;1.30;;;27.50;25.10;;;;;;2268326;61;20359;-60
2022/05/29 01:21:30;0.00;0.00;0.62;0.00;0.00;0.62;2.73;1.50;;;27.40;25.20;;;;;;2264206;61;20402;-61
2022/05/29 01:24:45;0.00;0.00;0.62;0.00;0.00;0.62;2.40;1.47;;;27.40;25.20;;;;;;2496433;53;20969;-60
2022/05/29 01:28:11;0.00;0.00;0.62;0.00;0.00;0.62;2.17;1.10;;;27.40;25.00;;;;;;2260010;61;20521;-59
2022/05/29 01:31:06;0.00;0.00;0.62;0.00;0.00;0.62;3.30;1.40;;;27.30;24.80;;;;;;2259671;61;20401;-63
2022/05/29 01:34:00;0.00;0.00;0.62;0.00;0.00;0.62;3.87;1.53;;;27.20;24.60;;;;;;2260356;61;20446;-61
2022/05/29 01:36:57;0.00;0.00;0.62;0.00;0.00;0.62;4.97;1.80;;;27.10;24.50;;;;;;2259564;61;20403;-63
2022/05/29 01:39:51;0.00;0.00;0.62;0.00;0.00;0.62;3.77;1.67;;;27.00;24.50;;;;;;2260062;61;20420;-58
2022/05/29 01:42:42;0.00;0.00;0.62;0.00;0.00;0.62;2.30;1.43;;;26.90;24.50;;;;;;2259761;61;20407;-60
2022/05/29 01:45:53;0.00;0.00;0.62;0.00;0.00;0.62;3.30;1.60;;;26.80;24.60;;;;;;2259601;61;20356;-62
2022/05/29 01:48:50;0.00;0.00;0.62;0.00;0.00;0.62;2.50;1.37;;;26.70;24.60;;;;;;2257317;61;20786;-61
2022/05/29 01:51:42;0.00;0.00;0.62;0.00;0.00;0.62;3.20;1.97;;;26.60;24.70;;;;;;2259045;61;20357;-60
2022/05/29 01:54:34;0.00;0.00;0.62;0.00;0.00;0.62;2.97;1.80;;;26.50;24.70;;;;;;2260389;61;20970;-62
2022/05/29 01:57:24;0.00;0.00;0.62;0.00;0.00;0.62;2.60;1.30;;;26.40;24.80;;;;;;2259647;61;20379;-60
2022/05/29 02:00:13;0.00;0.00;0.62;0.00;0.00;0.62;4.57;1.97;;;26.40;24.90;;;;;;2259542;61;20403;-59
2022/05/29 02:03:06;0.00;0.00;0.62;0.00;0.00;0.62;4.10;1.77;;;26.30;24.90;;;;;;2260310;61;20752;-60
2022/05/29 02:05:55;0.00;0.00;0.62;0.00;0.00;0.62;2.60;1.70;;;26.30;24.90;;;;;;2259085;61;20369;-61
2022/05/29 02:08:47;0.00;0.00;0.62;0.00;0.00;0.62;2.73;1.47;;;26.20;24.90;;;;;;2260466;61;20803;-60
2022/05/29 02:11:32;0.00;0.00;0.62;0.00;0.00;0.62;2.70;1.57;;;26.10;24.90;;;;;;2260089;61;20365;-62
2022/05/29 02:14:21;0.00;0.00;0.62;0.00;0.00;0.62;3.40;1.80;;;26.10;25.10;;;;;;2263392;61;20372;-59
2022/05/29 02:17:11;0.00;0.00;0.62;0.00;0.00;0.62;2.70;1.50;;;26.00;25.10;;;;;;2261319;61;20439;-59
2022/05/29 02:20:03;0.00;0.00;0.62;0.00;0.00;0.62;2.80;1.37;;;26.00;25.10;;;;;;2261410;61;20364;-58
2022/05/29 02:22:52;0.00;0.00;0.62;0.00;0.00;0.62;2.63;1.77;;;26.00;25.20;;;;;;2264380;61;20407;-59
2022/05/29 02:25:38;0.00;0.00;0.62;0.00;0.00;0.62;4.50;1.83;;;26.00;25.20;;;;;;2265009;61;20356;-61
2022/05/29 02:28:31;0.00;0.00;0.62;0.00;0.00;0.62;3.80;1.90;;;26.00;25.20;;;;;;2264240;61;20386;-59
2022/05/29 02:31:26;0.00;0.00;0.62;0.00;0.00;0.62;4.83;1.70;;;25.90;25.20;;;;;;2264517;61;20368;-58
2022/05/29 02:34:25;0.00;0.00;0.62;0.00;0.00;0.62;2.27;1.50;;;25.90;25.30;;;;;;2264748;61;20422;-55
2022/05/29 02:37:21;0.00;0.00;0.62;0.00;0.00;0.62;4.17;1.90;;;25.90;25.30;;;;;;2263909;61;20380;-57
2022/05/29 02:40:19;0.00;0.00;0.62;0.00;0.00;0.62;7.47;2.27;;;25.80;25.30;;;;;;2261361;61;20407;-60
2022/05/29 02:43:14;0.00;0.00;0.62;0.00;0.00;0.62;3.13;1.40;;;25.80;25.30;;;;;;2263800;61;20355;-58
2022/05/29 02:46:06;0.00;0.00;0.62;0.00;0.00;0.62;3.63;1.77;;;25.70;25.30;;;;;;2265288;61;20354;-58
2022/05/29 02:48:58;0.00;0.00;0.62;0.00;0.00;0.62;4.20;2.00;;;25.70;25.30;;;;;;2256865;61;20729;-57
2022/05/29 02:51:49;0.00;0.00;0.62;0.00;0.00;0.62;3.00;1.97;;;25.60;25.30;;;;;;2259677;61;20789;-58
2022/05/29 02:54:36;0.00;0.00;0.62;0.00;0.00;0.62;3.40;1.70;;;25.50;25.30;;;;;;2257111;61;20905;-62
2022/05/29 02:57:21;0.00;0.00;0.62;0.00;0.00;0.62;3.80;2.10;;;25.50;25.30;;;;;;2259797;61;20385;-60
2022/05/29 03:00:14;0.00;0.00;0.62;0.00;0.00;0.62;2.73;1.73;;;25.40;25.40;;;;;;2257093;61;20933;-59
2022/05/29 03:03:10;0.00;0.00;0.62;0.00;0.00;0.62;3.23;1.53;;;25.40;25.50;;;;;;2260447;61;20765;-59
2022/05/29 03:06:06;0.00;0.00;0.62;0.00;0.00;0.62;5.50;2.23;;;25.30;25.50;;;;;;2259956;61;20482;-60
2022/05/29 03:09:07;0.00;0.00;0.62;0.00;0.00;0.62;4.20;1.90;;;25.20;25.50;;;;;;2260734;61;20430;-62
2022/05/29 03:11:53;0.00;0.00;0.62;0.00;0.00;0.62;3.73;1.70;;;25.20;25.60;;;;;;2259696;61;20849;-61
2022/05/29 03:14:44;0.00;0.00;0.62;0.00;0.00;0.62;5.10;1.97;;;25.10;25.60;;;;;;2257301;61;20944;-60
2022/05/29 03:17:40;0.00;0.00;0.62;0.00;0.00;0.62;4.77;1.77;;;25.10;25.70;;;;;;2260298;61;20417;-62
2022/05/29 03:20:40;0.00;0.00;0.62;0.00;0.00;0.62;2.70;1.67;;;25.00;25.60;;;;;;2259945;61;20365;-58
2022/05/29 03:23:42;0.00;0.00;0.62;0.00;0.00;0.62;3.57;1.90;;;25.00;25.70;;;;;;2264620;61;20975;-57
2022/05/29 03:26:33;0.00;0.00;0.62;0.00;0.00;0.62;4.33;2.30;;;24.90;25.70;;;;;;2264363;61;20387;-60
2022/05/29 03:29:28;0.00;0.00;0.62;0.00;0.00;0.62;3.50;2.03;;;24.90;25.80;;;;;;2264499;61;20888;-59
2022/05/29 03:32:13;0.00;0.00;0.62;0.00;0.00;0.62;4.03;2.00;;;24.90;25.90;;;;;;2264316;61;20380;-61
2022/05/29 03:34:58;0.00;0.00;0.62;0.00;0.00;0.62;2.63;1.83;;;24.80;25.80;;;;;;2264128;61;20364;-60
2022/05/29 03:37:43;0.00;0.00;0.62;0.00;0.00;0.62;3.63;2.10;;;24.70;25.80;;;;;;2264135;61;20384;-55
2022/05/29 03:40:31;0.00;0.00;0.62;0.00;0.00;0.62;4.10;1.77;;;24.70;26.00;;;;;;2263513;61;20438;-59
2022/05/29 03:43:16;0.00;0.00;0.62;0.00;0.00;0.62;4.37;2.00;;;24.70;26.00;;;;;;2264000;61;20371;-59
2022/05/29 03:46:03;0.00;0.00;0.62;0.00;0.00;0.62;4.10;2.00;;;24.60;26.00;;;;;;2264218;61;20360;-59
2022/05/29 03:48:47;0.00;0.00;0.62;0.00;0.00;0.62;5.13;2.43;;;24.60;26.30;;;;;;2264253;61;20822;-57
2022/05/29 03:51:32;0.00;0.00;0.62;0.00;0.00;0.62;3.27;1.83;;;24.60;26.20;;;;;;2263550;61;20364;-60
2022/05/29 03:54:17;0.00;0.00;0.62;0.00;0.00;0.62;4.17;2.17;;;24.50;26.10;;;;;;2264794;61;20454;-62
2022/05/29 03:57:02;0.00;0.00;0.62;0.00;0.00;0.62;4.00;1.80;;;24.50;26.20;;;;;;2263915;61;20966;-58
2022/05/29 03:59:46;0.00;0.00;0.62;0.00;0.00;0.62;3.07;1.60;;;24.50;26.30;;;;;;2264356;61;20368;-56
2022/05/29 04:02:32;0.00;0.00;0.62;0.00;0.00;0.62;2.33;1.43;;;24.50;26.30;;;;;;2264193;61;20368;-64
2022/05/29 04:05:21;0.00;0.00;0.62;0.00;0.00;0.62;3.03;1.80;;;24.50;26.80;;;;;;2263702;61;20372;-61
2022/05/29 04:14:15;0.00;0.00;0.62;0.00;0.00;0.62;4.00;2.10;;;24.40;26.30;;;;;;2260956;61;20376;-61
2022/05/29 04:17:00;0.00;0.00;0.62;0.00;0.00;0.62;3.83;1.90;;;24.30;26.30;;;;;;2261302;61;20388;-56
2022/05/29 04:19:47;0.00;0.00;0.62;0.00;0.00;0.62;2.97;1.50;;;24.30;26.40;;;;;;2263834;61;20387;-60
2022/05/29 04:22:32;0.00;0.00;0.62;0.00;0.00;0.62;3.93;1.83;;;24.30;26.30;;;;;;2264267;61;20391;-67
2022/05/29 04:25:17;0.00;0.00;0.62;0.00;0.00;0.62;3.70;2.30;;;24.30;26.30;;;;;;2264167;61;20391;-62
2022/05/29 04:28:02;0.00;0.00;0.62;0.00;0.00;0.62;4.50;2.50;;;24.30;26.30;;;;;;2263802;61;20392;-56
2022/05/29 04:30:47;0.00;0.00;0.62;0.00;0.00;0.62;6.33;2.43;;;24.30;26.20;;;;;;2264273;61;20439;-57
2022/05/29 04:33:32;0.00;0.00;0.62;0.00;0.00;0.62;4.00;1.83;;;24.30;26.20;;;;;;2263779;61;20661;-60
2022/05/29 04:36:18;0.00;0.00;0.62;0.00;0.00;0.62;2.40;1.70;;;24.30;26.30;;;;;;2264038;61;20404;-59
2022/05/29 04:39:03;0.00;0.00;0.62;0.00;0.00;0.62;6.27;1.97;;;24.20;26.20;;;;;;2261475;61;20947;-59
2022/05/29 04:41:47;0.00;0.00;0.62;0.00;0.00;0.62;3.20;2.03;;;24.20;26.20;;;;;;2263398;61;20384;-57
2022/05/29 04:44:33;0.00;0.00;0.62;0.00;0.00;0.62;5.97;2.20;;;24.20;26.20;;;;;;2264411;61;20773;-63
2022/05/29 04:47:17;0.00;0.00;0.62;0.00;0.00;0.62;3.10;1.57;;;24.10;26.30;;;;;;2260430;61;20423;-63
2022/05/29 04:50:02;0.00;0.00;0.62;0.00;0.00;0.62;6.63;2.30;;;24.10;26.30;;;;;;2263841;61;20453;-59
2022/05/29 04:52:50;0.00;0.00;0.62;0.00;0.00;0.62;3.40;2.10;;;24.10;26.30;;;;;;2264565;61;20426;-58
2022/05/29 04:55:35;0.00;0.00;0.62;0.00;0.00;0.62;4.77;1.63;;;24.00;26.30;;;;;;2263466;61;20673;-59
2022/05/29 04:58:20;0.00;0.00;0.62;0.00;0.00;0.62;2.93;2.03;;;24.00;26.40;;;;;;2264018;61;20362;-59
2022/05/29 05:01:05;0.00;0.00;0.62;0.00;0.00;0.62;4.83;1.77;;;24.00;26.30;;;;;;2260911;61;20454;-60
2022/05/29 05:03:49;0.00;0.00;0.62;0.00;0.00;0.62;3.53;1.83;;;24.00;26.40;;;;;;2263370;61;20846;-59
2022/05/29 05:06:34;0.00;0.00;0.62;0.00;0.00;0.62;4.23;2.43;;;24.00;26.40;;;;;;2264502;61;20396;-62
2022/05/29 05:09:20;0.00;0.00;0.62;0.00;0.00;0.62;5.03;2.03;;;23.90;26.40;;;;;;2265479;61;20415;-61
2022/05/29 05:12:06;0.00;0.00;0.62;0.00;0.00;0.62;3.00;1.80;;;23.90;26.40;;;;;;2264086;61;20851;-59
2022/05/29 05:14:51;0.00;0.00;0.62;0.00;0.00;0.62;3.30;1.80;;;23.90;26.40;;;;;;2265528;61;20951;-62
2022/05/29 05:17:35;0.00;0.00;0.62;0.00;0.00;0.62;2.80;1.50;;;23.90;26.40;;;;;;2264789;61;20399;-60
2022/05/29 05:20:20;0.00;0.00;0.62;0.00;0.00;0.62;3.43;1.70;;;23.90;26.50;;;;;;2264817;61;20379;-59
2022/05/29 05:23:05;0.00;0.00;0.62;0.00;0.00;0.62;2.43;1.70;;;23.90;26.50;;;;;;2265271;61;20456;-62
2022/05/29 05:25:51;0.00;0.00;0.62;0.00;0.00;0.62;3.53;1.83;;;24.00;26.50;;;;;;2264397;61;20360;-62
2022/05/29 05:28:36;0.00;0.00;0.62;0.00;0.00;0.62;4.00;1.67;;;23.90;26.50;;;;;;2265191;61;20409;-60
2022/05/29 05:31:21;0.00;0.00;0.62;0.00;0.00;0.62;4.23;2.30;;;24.00;26.50;;;;;;2264684;61;20360;-61
2022/05/29 05:34:05;0.00;0.00;0.62;0.00;0.00;0.62;5.03;2.03;;;24.00;26.60;;;;;;2264749;61;20373;-62
2022/05/29 05:36:50;0.00;0.00;0.62;0.00;0.00;0.62;5.57;1.90;;;24.00;26.50;;;;;;2265131;61;20380;-62
2022/05/29 05:39:35;0.00;0.00;0.62;0.00;0.00;0.62;3.83;1.90;;;24.00;26.50;;;;;;2264738;61;20407;-61
2022/05/29 05:42:21;0.00;0.00;0.62;0.00;0.00;0.62;2.80;2.00;;;24.00;26.50;;;;;;2264796;61;20427;-58
2022/05/29 05:45:09;0.00;0.00;0.62;0.00;0.00;0.62;3.13;1.97;;;24.00;26.50;;;;;;2265811;61;20502;-60
2022/05/29 05:47:55;0.00;0.00;0.62;0.00;0.00;0.62;4.10;2.27;;;24.00;26.50;;;;;;2262089;61;20380;-60
2022/05/29 05:50:40;0.00;0.00;0.62;0.00;0.00;0.62;3.50;2.20;;;24.00;26.50;;;;;;2265962;61;20408;-62
2022/05/29 05:53:25;0.00;0.00;0.62;0.00;0.00;0.62;6.53;2.30;;;24.00;26.50;;;;;;2267069;61;20822;-63
2022/05/29 05:56:13;0.00;0.00;0.62;0.00;0.00;0.62;3.13;1.90;;;24.00;26.60;;;;;;2263271;61;20374;-63
2022/05/29 05:58:59;0.00;0.00;0.62;0.00;0.00;0.62;3.40;1.77;;;23.90;26.50;;;;;;2266780;61;20356;-66
2022/05/29 06:01:43;0.00;0.00;0.62;0.00;0.00;0.62;6.30;2.50;;;23.90;26.50;;;;;;2265898;61;20771;-63
2022/05/29 06:04:28;0.00;0.00;0.62;0.00;0.00;0.62;4.83;1.90;;;23.90;26.50;;;;;;2266034;61;20559;-64
2022/05/29 06:07:13;0.00;0.00;0.62;0.00;0.00;0.62;4.70;2.13;;;23.90;26.50;;;;;;2263748;61;20424;-63
2022/05/29 06:09:57;0.00;0.00;0.62;0.00;0.00;0.62;4.07;2.00;;;23.80;26.50;;;;;;2266012;61;20391;-64
2022/05/29 06:12:42;0.00;0.00;0.62;0.00;0.00;0.62;4.43;2.50;;;23.80;26.50;;;;;;2262330;61;20407;-64
2022/05/29 06:15:29;0.00;0.00;0.62;0.00;0.00;0.62;3.67;1.97;;;23.80;26.60;;;;;;2266319;61;20398;-64
2022/05/29 06:18:14;0.00;0.00;0.62;0.00;0.00;0.62;5.97;2.33;;;23.70;26.60;;;;;;2265517;61;20449;-64
2022/05/29 06:21:01;0.00;0.00;0.62;0.00;0.00;0.62;4.13;1.77;;;23.70;26.60;;;;;;2265743;61;20380;-64
2022/05/29 06:23:46;0.00;0.00;0.62;0.00;0.00;0.62;6.20;2.50;;;23.70;26.70;;;;;;2266160;61;20900;-64
2022/05/29 06:26:31;0.00;0.00;0.62;0.00;0.00;0.62;3.80;1.60;;;23.70;26.70;;;;;;2265387;61;20464;-64
2022/05/29 06:29:16;0.00;0.00;0.62;0.00;0.00;0.62;4.30;2.17;;;23.70;26.70;;;;;;2266086;61;20444;-65
2022/05/29 06:32:08;0.00;0.00;0.62;0.00;0.00;0.62;3.90;2.13;;;23.70;26.70;;;;;;2264977;61;20374;-65
2022/05/29 06:34:53;0.00;0.00;0.62;0.00;0.00;0.62;2.87;1.70;;;23.70;26.80;;;;;;2265430;61;20404;-65
2022/05/29 06:37:38;0.00;0.00;0.62;0.00;0.00;0.62;3.70;1.47;;;23.70;26.70;;;;;;2262671;61;20430;-64
2022/05/29 06:40:23;0.00;0.00;0.62;0.00;0.00;0.62;2.80;1.60;;;23.70;26.70;;;;;;2265088;61;20356;-64
2022/05/29 06:43:09;0.00;0.00;0.62;0.00;0.00;0.62;4.37;1.87;;;23.70;26.70;;;;;;2266645;61;20391;-64
2022/05/29 06:45:57;0.00;0.00;0.62;0.00;0.00;0.62;4.70;2.03;;;23.70;26.80;;;;;;2266170;61;20359;-66
2022/05/29 06:48:43;0.00;0.00;0.62;0.00;0.00;0.62;3.87;2.03;;;23.80;26.80;;;;;;2265972;61;20406;-64
2022/05/29 06:51:28;0.00;0.00;0.62;0.00;0.00;0.62;5.20;2.50;;;23.70;26.70;;;;;;2263571;61;20369;-64
2022/05/29 06:54:13;0.00;0.00;0.62;0.00;0.00;0.62;6.37;2.07;;;23.70;26.70;;;;;;2265748;61;20398;-65
2022/05/29 06:56:57;0.00;0.00;0.62;0.00;0.00;0.62;4.73;2.20;;;23.70;26.70;;;;;;2266088;61;20380;-64
2022/05/29 07:08:55;0.00;0.00;0.62;0.00;0.00;0.62;5.13;2.27;;;23.60;26.70;;;;;;2265618;61;20452;-65
2022/05/29 07:11:42;0.00;0.00;0.62;0.00;0.00;0.62;6.65;2.60;;;23.60;26.70;;;;;;2262417;61;20379;-64
2022/05/29 07:14:27;0.00;0.00;0.62;0.00;0.00;0.62;3.70;2.00;;;23.50;26.80;;;;;;2266842;61;20749;-63
2022/05/29 07:17:12;0.00;0.00;0.62;0.00;0.00;0.62;3.30;2.00;;;23.50;26.80;;;;;;2265694;61;20476;-70
2022/05/29 07:19:57;0.00;0.00;0.62;0.00;0.00;0.62;3.27;2.00;;;23.50;26.80;;;;;;2266489;61;20414;-64
2022/05/29 07:22:43;0.00;0.00;0.62;0.00;0.00;0.62;4.93;2.40;;;23.50;26.80;;;;;;2384967;53;20664;-64
2022/05/29 07:25:28;0.00;0.00;0.62;0.00;0.00;0.62;2.97;2.50;;;23.40;26.80;;;;;;2265146;61;20368;-64
2022/05/29 07:28:13;0.00;0.00;0.62;0.00;0.00;0.62;5.97;2.37;;;23.40;26.90;;;;;;2266078;61;20392;-64
2022/05/29 07:30:57;0.00;0.00;0.62;0.00;0.00;0.62;5.10;2.50;;;23.30;26.80;;;;;;2265296;61;20418;-63
2022/05/29 07:33:42;0.00;0.00;0.62;0.00;0.00;0.62;2.70;1.73;;;23.30;26.90;;;;;;2264055;61;20400;-63
2022/05/29 07:36:28;0.00;0.00;0.62;0.00;0.00;0.62;7.43;2.37;;;23.30;27.00;;;;;;2258754;61;20416;-64
2022/05/29 07:39:14;0.00;0.00;0.62;0.00;0.00;0.62;5.97;2.10;;;23.20;27.00;;;;;;2261721;61;20484;-64
2022/05/29 07:45:05;0.00;0.00;0.62;0.00;0.00;0.62;5.10;1.90;;;23.20;27.10;;;;;;2262141;61;20368;-64
2022/05/29 07:47:50;0.00;0.00;0.62;0.00;0.00;0.62;2.80;2.03;;;23.20;27.20;;;;;;2261738;61;20389;-64
2022/05/29 07:50:35;0.00;0.00;0.62;0.00;0.00;0.62;4.90;1.80;;;23.10;27.10;;;;;;2261629;61;20498;-64
2022/05/29 07:53:20;0.00;0.00;0.62;0.00;0.00;0.62;4.33;2.10;;;23.10;27.20;;;;;;2261616;61;20455;-64
2022/05/29 07:56:07;0.00;0.00;0.62;0.00;0.00;0.62;4.83;2.20;;;23.10;27.20;;;;;;2262173;61;20361;-67
2022/05/29 07:58:51;0.00;0.00;0.62;0.00;0.00;0.62;4.37;1.90;;;23.10;27.30;;;;;;2261791;61;20416;-63
2022/05/29 08:01:36;0.00;0.00;0.62;0.00;0.00;0.62;2.90;1.70;;;23.00;27.30;;;;;;2257247;61;20428;-64
2022/05/29 08:04:20;0.00;0.00;0.62;0.00;0.00;0.62;4.20;1.77;;;23.10;27.40;;;;;;2263040;61;20415;-59
2022/05/29 08:07:05;0.00;0.00;0.62;0.00;0.00;0.62;2.57;1.37;;;23.00;27.40;;;;;;2260883;61;20835;-57
2022/05/29 08:09:50;0.00;0.00;0.62;0.00;0.00;0.62;3.17;1.60;;;23.10;27.50;;;;;;2262678;61;20364;-63
2022/05/29 08:12:36;0.00;0.00;0.62;0.00;0.00;0.62;2.30;1.63;;;23.10;27.50;;;;;;2263261;61;20376;-64
2022/05/29 08:15:21;0.00;0.00;0.62;0.00;0.00;0.62;3.03;1.60;;;23.20;27.60;;;;;;2261999;61;20902;-63
2022/05/29 08:18:07;0.00;0.00;0.62;0.00;0.00;0.62;2.13;1.43;;;23.20;27.60;;;;;;2262655;61;20976;-67
2022/05/29 08:20:52;0.00;0.00;0.62;0.00;0.00;0.62;4.10;2.30;;;23.20;27.60;;;;;;2264228;61;20418;-64
2022/05/29 08:23:37;0.00;0.00;0.62;0.00;0.00;0.62;5.13;1.57;;;23.20;27.60;;;;;;2262648;61;20365;-62
2022/05/29 08:32:31;0.00;0.00;0.62;0.00;0.00;0.62;3.40;1.87;;;23.30;27.60;;;;;;2261445;61;20752;-61
2022/05/29 08:35:16;0.00;0.00;0.62;0.00;0.00;0.62;2.97;1.70;;;23.40;27.70;;;;;;2258895;61;20450;-59
2022/05/29 08:38:02;0.00;0.00;0.62;0.00;0.00;0.62;2.70;1.50;;;23.40;27.70;;;;;;2259840;61;20677;-59
2022/05/29 08:40:50;0.00;0.00;0.62;0.00;0.00;0.62;2.00;1.50;;;23.40;27.60;;;;;;2260959;61;20361;-63
2022/05/29 08:43:39;0.00;0.00;0.62;0.00;0.00;0.62;3.10;1.50;;;23.50;27.60;;;;;;2261599;61;20365;-61
2022/05/29 08:46:32;0.00;0.00;0.62;0.00;0.00;0.62;2.53;1.40;;;23.50;27.60;;;;;;2260266;61;20469;-57
2022/05/29 08:49:22;0.00;0.00;0.62;0.00;0.00;0.62;2.83;1.40;;;23.50;27.50;;;;;;2258359;61;20411;-59
2022/05/29 08:52:22;0.00;0.00;0.62;0.00;0.00;0.62;2.20;1.50;;;23.60;27.50;;;;;;2260668;61;20357;-57
2022/05/29 08:55:12;0.00;0.00;0.62;0.00;0.00;0.62;3.03;1.53;;;23.60;27.50;;;;;;2260830;61;20391;-57
2022/05/29 08:58:19;0.00;0.00;0.62;0.00;0.00;0.62;3.43;1.70;;;23.70;27.50;;;;;;2257990;61;20449;-59
2022/05/29 09:01:15;0.00;0.00;0.62;0.00;0.00;0.62;2.80;1.47;;;23.70;27.50;;;;;;2259985;61;20361;-58
2022/05/29 09:04:05;0.00;0.00;0.62;0.00;0.00;0.62;4.67;2.77;;;23.70;27.50;;;;;;2261208;61;20381;-59
2022/05/29 09:06:54;0.00;0.00;0.62;0.00;0.00;0.62;7.27;4.30;;;23.70;27.60;;;;;;2257958;61;20921;-55
2022/05/29 09:09:45;0.00;0.00;0.62;0.00;0.00;0.62;7.53;4.00;;;23.80;27.80;;;;;;2261067;61;20365;-64
2022/05/29 09:12:36;0.00;0.00;0.62;0.00;0.00;0.62;8.90;5.10;;;23.80;27.90;;;;;;2257857;61;20401;-58
2022/05/29 09:15:30;0.00;0.00;0.62;0.00;0.00;0.62;6.67;4.27;;;23.80;28.00;;;;;;2260234;61;20393;-58
2022/05/29 09:18:23;0.00;0.00;0.62;0.00;0.00;0.62;8.30;4.57;;;23.90;28.30;;;;;;2261804;61;20361;-57
2022/05/29 09:21:15;0.00;0.00;0.62;0.00;0.00;0.62;9.40;4.93;;;23.80;28.20;;;;;;2263971;61;20368;-56
2022/05/29 09:24:09;0.00;0.00;0.62;0.00;0.00;0.62;7.60;4.10;;;23.90;28.40;;;;;;2265642;61;20392;-57
2022/05/29 09:26:53;0.00;0.00;0.62;0.00;0.00;0.62;9.27;3.93;;;23.90;28.40;;;;;;2266709;61;20376;-57
2022/05/29 09:29:38;0.00;0.00;0.62;0.00;0.00;0.62;5.93;3.40;;;23.90;28.40;;;;;;2265835;61;20359;-65
2022/05/29 09:32:27;0.00;0.00;0.62;0.00;0.00;0.62;5.13;3.37;;;23.90;28.30;;;;;;2261581;61;20402;-64
2022/05/29 09:35:19;0.00;0.00;0.62;0.00;0.00;0.62;7.77;3.40;;;24.00;28.40;;;;;;2264312;61;20364;-63
2022/05/29 09:38:20;0.00;0.00;0.62;0.00;0.00;0.62;4.87;2.50;;;24.00;28.30;;;;;;2264952;61;20379;-65
2022/05/29 09:41:13;0.00;0.00;0.62;0.00;0.00;0.62;3.90;2.53;;;24.00;28.30;;;;;;2266160;61;20908;-60
2022/05/29 09:44:12;0.00;0.00;0.62;0.00;0.00;0.62;3.00;2.33;;;24.00;28.30;;;;;;2264365;61;20868;-62
2022/05/29 09:49:40;0.00;0.00;0.62;0.00;0.00;0.62;3.20;2.37;;;24.00;28.30;;;;;;2266242;61;20406;-63
2022/05/29 09:50:08;0.00;0.00;0.62;0.00;0.00;0.62;2.93;2.13;;;24.10;28.30;;;;;;2261473;61;20360;-65
2022/05/29 09:52:54;0.00;0.00;0.62;0.00;0.00;0.62;3.50;1.80;;;24.10;28.20;;;;;;2260674;61;20392;-65
2022/05/29 09:55:49;0.00;0.00;0.62;0.00;0.00;0.62;3.27;1.70;;;24.10;28.20;;;;;;2261592;61;20454;-66
2022/05/29 09:58:44;0.00;0.00;0.62;0.00;0.00;0.62;3.97;2.20;;;24.20;28.10;;;;;;2260625;61;20790;-63
2022/05/29 10:01:38;0.00;0.00;0.62;0.00;0.00;0.62;3.40;1.83;;;24.20;28.10;;;;;;2260327;61;20364;-62
2022/05/29 10:04:34;0.00;0.00;0.62;0.00;0.00;0.62;3.07;1.90;;;24.20;28.00;;;;;;2260231;61;20369;-64
2022/05/29 10:07:36;0.00;0.00;0.62;0.00;0.00;0.62;2.97;1.80;;;24.30;28.10;;;;;;2260304;61;20420;-64
2022/05/29 10:10:34;0.00;0.00;0.62;0.00;0.00;0.62;3.43;2.63;;;24.30;28.00;;;;;;2260843;61;20427;-65
2022/05/29 10:13:38;0.00;0.00;0.62;0.00;0.00;0.62;3.30;1.63;;;24.40;28.10;;;;;;2257417;61;20470;-66
2022/05/29 10:16:34;0.00;0.00;0.62;0.00;0.00;0.62;3.77;2.07;;;24.50;28.10;;;;;;2260512;61;20817;-61
2022/05/29 10:19:36;0.00;0.00;0.62;0.00;0.00;0.62;3.20;2.13;;;24.50;28.20;;;;;;2258605;61;20384;-59
2022/05/29 10:22:27;0.00;0.00;0.62;0.00;0.00;0.62;3.23;2.00;;;24.60;28.20;;;;;;2266372;61;20367;-59
2022/05/29 10:25:15;0.00;0.00;0.62;0.00;0.00;0.62;3.00;1.80;;;24.60;28.20;;;;;;2266030;61;20381;-59
2022/05/29 10:28:05;0.00;0.00;0.62;0.00;0.00;0.62;4.00;2.10;;;24.60;28.20;;;;;;2266510;61;20485;-60
2022/05/29 10:30:58;0.00;0.00;0.62;0.00;0.00;0.62;4.43;1.73;;;24.60;28.20;;;;;;2262554;61;20371;-59
2022/05/29 10:34:01;0.00;0.00;0.62;0.00;0.00;0.62;3.17;1.50;;;24.60;28.20;;;;;;2263026;61;20402;-62
2022/05/29 10:36:46;0.00;0.00;0.62;0.00;0.00;0.62;2.20;1.13;;;24.60;28.10;;;;;;2266617;61;20379;-63
2022/05/29 10:39:32;0.00;0.00;0.62;0.00;0.00;0.62;1.93;1.30;;;24.60;28.10;;;;;;2266586;61;20364;-62
2022/05/29 10:42:39;0.00;0.00;0.62;0.00;0.00;0.62;2.97;1.40;;;24.70;28.20;;;;;;2265077;61;20372;-61
2022/05/29 10:45:28;0.00;0.00;0.62;0.00;0.00;0.62;3.03;1.47;;;24.70;28.10;;;;;;2265941;61;20663;-63
2022/05/29 10:48:43;0.00;0.00;0.62;0.00;0.00;0.62;2.20;1.20;;;24.70;28.10;;;;;;2266262;61;20379;-58
2022/05/29 10:51:41;0.00;0.00;0.62;0.00;0.00;0.62;2.23;1.47;;;24.70;28.10;;;;;;2266025;61;20749;-63
2022/05/29 10:54:47;0.00;0.00;0.62;0.00;0.00;0.62;2.30;1.23;;;24.80;28.20;;;;;;2264259;61;20434;-64
2022/05/29 10:58:00;0.00;0.00;0.62;0.00;0.00;0.62;2.60;1.43;;;24.90;28.30;;;;;;2265825;61;20384;-57
2022/05/29 11:01:03;0.00;0.00;0.62;0.00;0.00;0.62;2.17;1.30;;;24.80;28.20;;;;;;2265404;61;20803;-63
2022/05/29 11:04:06;0.00;0.00;0.62;0.00;0.00;0.62;2.73;1.80;;;24.90;28.30;;;;;;2261867;61;20482;-63
2022/05/29 11:07:11;0.00;0.00;0.62;0.00;0.00;0.62;1.80;1.10;;;24.90;28.80;;;;;;2264248;61;20383;-60
2022/05/29 11:10:10;0.00;0.00;0.62;0.00;0.00;0.62;2.90;1.37;;;25.00;28.40;;;;;;2264079;61;20456;-63
2022/05/29 11:13:16;0.00;0.00;0.62;0.00;0.00;0.62;2.37;1.87;;;25.00;28.50;;;;;;2266849;61;20392;-65
2022/05/29 11:16:16;0.00;0.00;0.62;0.00;0.00;0.62;2.07;1.27;;;25.10;28.50;;;;;;2268483;61;20359;-60
2022/05/29 11:19:32;0.00;0.00;0.62;0.00;0.00;0.62;2.17;1.33;;;25.10;28.50;;;;;;2268968;61;20901;-63
2022/05/29 11:22:25;0.00;0.00;0.62;0.00;0.00;0.62;2.10;1.13;;;25.20;28.50;;;;;;2268682;61;20398;-62
2022/05/29 11:25:28;0.00;0.00;0.62;0.00;0.00;0.62;1.90;1.10;;;25.20;28.60;;;;;;2268529;61;20383;-64
2022/05/29 11:28:56;0.00;0.00;0.62;0.00;0.00;0.62;1.90;1.20;;;25.30;28.60;;;;;;2268631;61;20380;-61
2022/05/29 11:31:55;0.00;0.00;0.62;0.00;0.00;0.62;2.03;1.30;;;25.30;28.60;;;;;;2246164;61;20465;-67
2022/05/29 11:35:01;0.00;0.00;0.62;0.00;0.00;0.62;3.50;1.30;;;25.40;28.60;;;;;;2267173;61;20650;-60